»·PEaware :: DAL213 KSNA-KSFO

DAL213 :: KSNA-KSFO

FLIGHT INFORMATION

Flight Status: Arrived
Operator:
Delta Air Lines
More flights by this operator :: More flights under this callsign
Pilot: Nicolas L. (9332)
Aircraft: BOEING 737-800
(B738)
More flights by this aircraft type
Origin: KSNA John Wayne-Orange Co
United States
Destination: KSFO San Francisco Intl
United States
More flights between these airports :: More routes between these airports
Route: HHERO3 IKAYE RIZIN SPLNT STOKD SERFR SERFR3
File this flight plan on PilotEdge
Remarks: Live Streaming on Twitch "DAL213" and YT
Altitude:
(Current/Filed)
34,000ft
Speed:
(Current/Filed)
400kts
Departed: 08-Oct-18 08:13 PM
Arrived: 08-Oct-18 09:16 PM
Distance/Time
Traveled:
323nm/1:03
Distance/Time
To Go:
Arrived

Flight Plot

Page will automatically refresh every two minutes.

Flight plan parsing failed; only flown route is shown


Map Options




Map Legend


Flown Route
Filed Route
Departure Airport
Arrival Airport
Navaid (VOR, NDB)
Fix

Horizontal Profiles

Position Reports

Time Latitude Longitude Heading Altitude Ground
Speed
08-Oct-18 19:54 33.679335 -117.862399 117 65ft 0kts
08-Oct-18 19:55 33.679335 -117.862399 117 65ft 0kts
08-Oct-18 19:56 33.679335 -117.862399 117 65ft 0kts
08-Oct-18 19:57 33.679335 -117.862399 117 65ft 0kts
08-Oct-18 19:58 33.679335 -117.862399 117 65ft 0kts
08-Oct-18 19:59 33.679335 -117.862399 117 65ft 0kts
08-Oct-18 20:00 33.679335 -117.862399 117 65ft 0kts
08-Oct-18 20:01 33.679335 -117.862399 117 65ft 0kts
08-Oct-18 20:02 33.679335 -117.862399 117 65ft 0kts
08-Oct-18 20:03 33.679335 -117.862399 117 65ft 0kts
08-Oct-18 20:04 33.679335 -117.862399 117 65ft 0kts
08-Oct-18 20:05 33.679335 -117.862399 117 65ft 0kts
08-Oct-18 20:06 33.679335 -117.862399 117 65ft 0kts
08-Oct-18 20:07 33.679335 -117.862399 117 65ft 0kts
08-Oct-18 20:08 33.679335 -117.862399 117 65ft 0kts
08-Oct-18 20:09 33.679359 -117.862454 117 65ft 1kts
08-Oct-18 20:10 33.679327 -117.863316 56 65ft 0kts
08-Oct-18 20:11 33.679327 -117.863315 56 65ft 0kts
08-Oct-18 20:12 33.679327 -117.863315 56 65ft 0kts
08-Oct-18 20:13 33.680571 -117.862956 304 65ft 8kts
08-Oct-18 20:14 33.680887 -117.863648 298 65ft 20kts
08-Oct-18 20:15 33.658783 -117.879554 207 879ft 163kts
08-Oct-18 20:16 33.604487 -117.894385 188 3482ft 236kts
08-Oct-18 20:17 33.542427 -117.932839 222 6684ft 271kts
08-Oct-18 20:18 33.485679 -117.996681 228 10032ft 288kts
08-Oct-18 20:19 33.438671 -118.087441 240 11789ft 350kts
08-Oct-18 20:20 33.430791 -118.196990 308 14329ft 355kts
08-Oct-18 20:21 33.499406 -118.282571 317 17301ft 358kts
08-Oct-18 20:22 33.557592 -118.354327 317 19501ft 364kts
08-Oct-18 20:23 33.628965 -118.442551 317 21875ft 374kts
08-Oct-18 20:24 33.702350 -118.533515 318 23978ft 383kts
08-Oct-18 20:25 33.777230 -118.626563 317 25807ft 391kts
08-Oct-18 20:26 33.853554 -118.721678 317 27389ft 399kts
08-Oct-18 20:27 33.931400 -118.818947 316 28738ft 406kts
08-Oct-18 20:28 33.994736 -118.898290 316 29647ft 410kts
08-Oct-18 20:29 34.056182 -118.975428 316 30454ft 412kts
08-Oct-18 20:30 34.135866 -119.075748 316 31396ft 414kts
08-Oct-18 20:31 34.215377 -119.176125 316 32375ft 413kts
08-Oct-18 20:32 34.294895 -119.276803 316 33332ft 412kts
08-Oct-18 20:33 34.373998 -119.377253 316 33899ft 414kts
08-Oct-18 20:34 34.453067 -119.477955 316 33908ft 411kts
08-Oct-18 20:35 34.531792 -119.578504 316 33898ft 409kts
08-Oct-18 20:36 34.609844 -119.678504 316 33905ft 408kts
08-Oct-18 20:37 34.687955 -119.778862 316 33899ft 408kts
08-Oct-18 20:38 34.765738 -119.879092 316 33903ft 408kts
08-Oct-18 20:39 34.843517 -119.979611 315 33908ft 408kts
08-Oct-18 20:40 34.921442 -120.080614 315 33891ft 409kts
08-Oct-18 20:41 34.999278 -120.181819 315 33910ft 410kts
08-Oct-18 20:42 35.077443 -120.283744 315 33912ft 410kts
08-Oct-18 20:43 35.155055 -120.385255 315 33908ft 409kts
08-Oct-18 20:44 35.232492 -120.486835 315 33904ft 409kts
08-Oct-18 20:45 35.310098 -120.588952 315 33903ft 409kts
08-Oct-18 20:46 35.387383 -120.690946 315 33902ft 409kts
08-Oct-18 20:47 35.464896 -120.793549 315 33898ft 409kts
08-Oct-18 20:48 35.551459 -120.882439 324 33899ft 407kts
08-Oct-18 20:49 35.642118 -120.965565 324 33896ft 407kts
08-Oct-18 20:50 35.732563 -121.049684 324 33892ft 407kts
08-Oct-18 20:51 35.822708 -121.133912 324 33893ft 407kts
08-Oct-18 20:52 35.913239 -121.218748 324 33663ft 409kts
08-Oct-18 20:53 36.003260 -121.303356 324 31641ft 411kts
08-Oct-18 20:54 36.095425 -121.386405 329 29575ft 403kts
08-Oct-18 20:55 36.193335 -121.462131 329 27507ft 419kts
08-Oct-18 20:56 36.291907 -121.539273 329 25428ft 414kts
08-Oct-18 20:57 36.385709 -121.612888 329 23451ft 387kts
08-Oct-18 20:58 36.473695 -121.682124 330 21596ft 358kts
08-Oct-18 20:59 36.546393 -121.739514 330 20062ft 343kts
08-Oct-18 21:00 36.605388 -121.786188 330 18819ft 334kts
08-Oct-18 21:01 36.683302 -121.847963 330 17304ft 329kts
08-Oct-18 21:02 36.763240 -121.898736 346 15706ft 320kts
08-Oct-18 21:03 36.848836 -121.923743 348 14112ft 312kts
08-Oct-18 21:04 36.932492 -121.947530 348 12584ft 304kts
08-Oct-18 21:05 37.013808 -121.977037 343 11071ft 305kts
08-Oct-18 21:06 37.090834 -122.007257 344 10536ft 267kts
08-Oct-18 21:07 37.160046 -122.034325 344 10077ft 260kts
08-Oct-18 21:08 37.230087 -122.061744 344 8870ft 260kts
08-Oct-18 21:09 37.298782 -122.088710 343 7534ft 255kts
08-Oct-18 21:10 37.366003 -122.115227 343 6191ft 252kts
08-Oct-18 21:11 37.432064 -122.141199 342 4726ft 245kts
08-Oct-18 21:12 37.496524 -122.162721 348 3560ft 229kts
08-Oct-18 21:13 37.546078 -122.196599 300 2671ft 198kts
08-Oct-18 21:14 37.568113 -122.250123 297 1692ft 159kts
08-Oct-18 21:15 37.570008 -122.301466 264 1231ft 136kts
08-Oct-18 21:16 37.571026 -122.348424 281 974ft 131kts
08-Oct-18 21:17 37.589491 -122.385828 335 512ft 130kts
08-Oct-18 21:18 37.619213 -122.372579 28 22ft 34kts
08-Oct-18 21:19 37.621535 -122.372532 300 22ft 1kts
08-Oct-18 21:20 37.620954 -122.377481 227 22ft 19kts
08-Oct-18 21:21 37.616968 -122.379349 215 22ft 18kts
08-Oct-18 21:22 37.611969 -122.382687 209 22ft 10kts
08-Oct-18 21:23 37.611309 -122.385021 258 22ft 13kts
08-Oct-18 21:24 37.612355 -122.388121 302 22ft 8kts
08-Oct-18 21:25 37.612521 -122.388524 295 22ft 0kts
08-Oct-18 21:26 37.612521 -122.388524 295 22ft 0kts
08-Oct-18 21:27 37.612521 -122.388524 295 22ft 0kts

Navigation Log

Ident Type
Flight plan parsing failed, navigation log unavailable